Time,TemperatureF,DewpointF,PressureIn,WindDirection,WindDirectionDegrees,WindSpeedMPH,WindSpeedGustMPH,Humidity,HourlyPrecipIn,Conditions,Clouds,dailyrainin,SoftwareType,DateUTC
2017-04-25 00:10:00,52.7,48.0,30.10,NE,49,1.0,4.0,85,0.00,,,0.00,weatherlink.com 1.10,2017-04-25 04:10:00,
2017-04-25 00:25:00,52.6,49.0,30.10,ESE,103,3.0,3.0,86,0.00,,,0.00,weatherlink.com 1.10,2017-04-25 04:25:00,
2017-04-25 00:40:00,52.6,49.0,30.10,East,82,1.0,4.0,87,0.00,,,0.00,weatherlink.com 1.10,2017-04-25 04:40:00,
2017-04-25 00:55:00,52.6,49.0,30.09,NNE,15,0.0,5.0,88,0.00,,,0.00,weatherlink.com 1.10,2017-04-25 04:55:00,
2017-04-25 01:10:00,52.7,50.0,30.09,ENE,70,0.0,6.0,90,0.00,,,0.00,weatherlink.com 1.10,2017-04-25 05:10:00,
2017-04-25 01:26:00,52.9,50.0,30.09,ENE,63,5.0,6.0,90,0.00,,,0.00,weatherlink.com 1.10,2017-04-25 05:26:00,
2017-04-25 01:40:00,52.9,50.0,30.08,ENE,68,2.0,8.0,89,0.00,,,0.00,weatherlink.com 1.10,2017-04-25 05:40:00,
2017-04-25 01:56:00,52.9,50.0,30.07,NE,49,1.0,4.0,89,0.00,,,0.00,weatherlink.com 1.10,2017-04-25 05:56:00,
2017-04-25 02:10:00,52.9,50.0,30.07,SE,129,1.0,5.0,89,0.00,,,0.00,weatherlink.com 1.10,2017-04-25 06:10:00,
2017-04-25 02:35:00,52.8,50.0,30.06,NE,56,2.0,7.0,89,0.00,,,0.00,weatherlink.com 1.10,2017-04-25 06:35:00,
2017-04-25 02:43:00,52.7,50.0,30.06,North,6,3.0,6.0,89,0.00,,,0.00,weatherlink.com 1.10,2017-04-25 06:43:00,
2017-04-25 02:56:00,52.2,49.0,30.06,NE,56,4.0,7.0,90,0.00,,,0.00,weatherlink.com 1.10,2017-04-25 06:56:00,
2017-04-25 03:11:00,52.0,50.0,30.05,NE,53,2.0,6.0,91,0.00,,,0.00,weatherlink.com 1.10,2017-04-25 07:11:00,
2017-04-25 03:27:00,51.9,49.0,30.05,NNE,12,0.0,7.0,91,0.00,,,0.00,weatherlink.com 1.10,2017-04-25 07:27:00,
2017-04-25 03:41:00,51.6,49.0,30.05,NE,53,2.0,6.0,92,0.00,,,0.00,weatherlink.com 1.10,2017-04-25 07:41:00,
2017-04-25 03:56:00,51.2,49.0,30.05,East,86,0.0,5.0,92,0.01,,,0.01,weatherlink.com 1.10,2017-04-25 07:56:00,
2017-04-25 04:11:00,51.0,49.0,30.04,NNE,13,1.0,7.0,93,0.01,,,0.01,weatherlink.com 1.10,2017-04-25 08:11:00,
2017-04-25 04:26:00,50.8,49.0,30.05,ENE,64,3.0,8.0,92,0.01,,,0.01,weatherlink.com 1.10,2017-04-25 08:26:00,
2017-04-25 04:41:00,50.6,48.0,30.05,ENE,64,7.0,10.0,92,0.01,,,0.01,weatherlink.com 1.10,2017-04-25 08:41:00,
2017-04-25 04:56:00,50.3,48.0,30.05,ENE,60,7.0,9.0,93,0.01,,,0.02,weatherlink.com 1.10,2017-04-25 08:56:00,
2017-04-25 05:12:00,49.9,48.0,30.04,NE,56,1.0,7.0,93,0.01,,,0.02,weatherlink.com 1.10,2017-04-25 09:12:00,
2017-04-25 05:26:00,49.9,48.0,30.04,ENE,63,2.0,7.0,93,0.01,,,0.02,weatherlink.com 1.10,2017-04-25 09:26:00,
2017-04-25 05:41:00,50.2,49.0,30.04,ESE,103,3.0,8.0,94,0.01,,,0.02,weatherlink.com 1.10,2017-04-25 09:41:00,
2017-04-25 05:56:00,50.3,49.0,30.04,NNE,18,4.0,9.0,94,0.00,,,0.02,weatherlink.com 1.10,2017-04-25 09:56:00,
2017-04-25 06:11:00,50.5,49.0,30.04,ENE,60,4.0,11.0,95,0.00,,,0.02,weatherlink.com 1.10,2017-04-25 10:11:00,
2017-04-25 06:26:00,50.3,49.0,30.04,North,349,5.0,8.0,95,0.00,,,0.02,weatherlink.com 1.10,2017-04-25 10:26:00,
2017-04-25 06:41:00,50.4,49.0,30.05,NNE,23,2.0,8.0,95,0.00,,,0.02,weatherlink.com 1.10,2017-04-25 10:41:00,
2017-04-25 06:56:00,50.8,50.0,30.05,ENE,64,6.0,9.0,95,0.00,,,0.02,weatherlink.com 1.10,2017-04-25 10:56:00,
2017-04-25 07:11:00,51.0,49.0,30.05,NNW,336,1.0,11.0,94,0.00,,,0.02,weatherlink.com 1.10,2017-04-25 11:11:00,
2017-04-25 07:26:00,51.3,49.0,30.06,ENE,60,1.0,9.0,93,0.00,,,0.02,weatherlink.com 1.10,2017-04-25 11:26:00,
2017-04-25 07:41:00,51.5,49.0,30.06,ENE,75,3.0,12.0,92,0.00,,,0.02,weatherlink.com 1.10,2017-04-25 11:41:00,
2017-04-25 07:56:00,51.7,50.0,30.06,NE,56,1.0,8.0,93,0.00,,,0.02,weatherlink.com 1.10,2017-04-25 11:56:00,
2017-04-25 08:11:00,51.4,50.0,30.06,NNE,23,5.0,9.0,94,0.00,,,0.02,weatherlink.com 1.10,2017-04-25 12:11:00,
2017-04-25 08:26:00,51.3,50.0,30.06,ENE,68,7.0,11.0,95,0.00,,,0.02,weatherlink.com 1.10,2017-04-25 12:26:00,
2017-04-25 08:42:00,51.6,50.0,30.07,NE,54,1.0,8.0,95,0.00,,,0.02,weatherlink.com 1.10,2017-04-25 12:42:00,
2017-04-25 08:56:00,52.0,51.0,30.06,ENE,75,2.0,9.0,95,0.00,,,0.02,weatherlink.com 1.10,2017-04-25 12:56:00,
2017-04-25 09:11:00,52.8,52.0,30.06,NE,37,6.0,11.0,95,0.00,,,0.02,weatherlink.com 1.10,2017-04-25 13:11:00,
2017-04-25 09:26:00,53.7,52.0,30.06,ENE,63,6.0,13.0,94,0.00,,,0.02,weatherlink.com 1.10,2017-04-25 13:26:00,
2017-04-25 09:41:00,54.0,52.0,30.07,NE,50,4.0,12.0,92,0.01,,,0.03,weatherlink.com 1.10,2017-04-25 13:41:00,
2017-04-25 09:56:00,53.7,52.0,30.07,North,359,4.0,10.0,93,0.01,,,0.03,weatherlink.com 1.10,2017-04-25 13:56:00,
2017-04-25 10:12:00,53.8,52.0,30.06,ENE,65,6.0,10.0,94,0.01,,,0.03,weatherlink.com 1.10,2017-04-25 14:12:00,
2017-04-25 10:27:00,53.9,52.0,30.06,NE,37,4.0,12.0,94,0.01,,,0.03,weatherlink.com 1.10,2017-04-25 14:27:00,
2017-04-25 10:41:00,53.9,52.0,30.07,NE,37,6.0,11.0,94,0.02,,,0.05,weatherlink.com 1.10,2017-04-25 14:41:00,
2017-04-25 10:57:00,54.0,53.0,30.06,ENE,74,5.0,11.0,95,0.02,,,0.05,weatherlink.com 1.10,2017-04-25 14:57:00,
2017-04-25 11:11:00,54.2,53.0,30.06,NE,34,3.0,11.0,95,0.02,,,0.05,weatherlink.com 1.10,2017-04-25 15:11:00,
2017-04-25 11:26:00,54.3,53.0,30.05,ESE,122,4.0,12.0,95,0.02,,,0.05,weatherlink.com 1.10,2017-04-25 15:26:00,
2017-04-25 11:42:00,55.1,54.0,30.06,NE,39,3.0,10.0,95,0.00,,,0.05,weatherlink.com 1.10,2017-04-25 15:42:00,
2017-04-25 11:57:00,55.2,54.0,30.05,ENE,65,3.0,12.0,94,0.00,,,0.05,weatherlink.com 1.10,2017-04-25 15:57:00,
2017-04-25 12:12:00,55.1,54.0,30.05,ESE,114,2.0,9.0,94,0.01,,,0.06,weatherlink.com 1.10,2017-04-25 16:12:00,
2017-04-25 12:27:00,55.1,54.0,30.04,East,86,0.0,10.0,94,0.01,,,0.06,weatherlink.com 1.10,2017-04-25 16:27:00,
2017-04-25 12:42:00,54.9,54.0,30.04,ENE,65,6.0,10.0,95,0.02,,,0.07,weatherlink.com 1.10,2017-04-25 16:42:00,
2017-04-25 12:57:00,54.7,54.0,30.03,ENE,70,3.0,11.0,96,0.02,,,0.07,weatherlink.com 1.10,2017-04-25 16:57:00,
2017-04-25 13:12:00,54.7,54.0,30.02,NE,34,2.0,11.0,97,0.01,,,0.07,weatherlink.com 1.10,2017-04-25 17:12:00,
2017-04-25 13:27:00,54.9,54.0,30.01,ESE,122,3.0,13.0,97,0.01,,,0.07,weatherlink.com 1.10,2017-04-25 17:27:00,
2017-04-25 13:42:00,55.1,54.0,30.00,ENE,67,4.0,10.0,97,0.00,,,0.07,weatherlink.com 1.10,2017-04-25 17:42:00,
2017-04-25 13:57:00,55.1,54.0,30.00,ENE,74,4.0,13.0,97,0.01,,,0.08,weatherlink.com 1.10,2017-04-25 17:57:00,
2017-04-25 14:12:00,54.8,54.0,29.98,NE,45,7.0,13.0,97,0.04,,,0.11,weatherlink.com 1.10,2017-04-25 18:12:00,
2017-04-25 14:27:00,55.1,55.0,29.99,NE,56,4.0,9.0,98,0.04,,,0.11,weatherlink.com 1.10,2017-04-25 18:27:00,
2017-04-25 14:42:00,55.4,55.0,29.98,NE,50,6.0,13.0,98,0.04,,,0.11,weatherlink.com 1.10,2017-04-25 18:42:00,
2017-04-25 14:57:00,55.3,55.0,29.97,ENE,72,4.0,16.0,97,0.02,,,0.11,weatherlink.com 1.10,2017-04-25 18:57:00,
2017-04-25 15:12:00,55.0,54.0,29.97,ENE,75,3.0,16.0,97,0.01,,,0.12,weatherlink.com 1.10,2017-04-25 19:12:00,
2017-04-25 15:27:00,54.6,54.0,29.96,ENE,57,11.0,13.0,97,0.01,,,0.12,weatherlink.com 1.10,2017-04-25 19:27:00,
2017-04-25 15:42:00,54.3,54.0,29.95,NE,39,4.0,14.0,98,0.02,,,0.13,weatherlink.com 1.10,2017-04-25 19:42:00,
2017-04-25 15:57:00,54.5,54.0,29.95,ENE,58,9.0,12.0,98,0.03,,,0.14,weatherlink.com 1.10,2017-04-25 19:57:00,
2017-04-25 16:12:00,53.9,53.0,29.93,ENE,64,7.0,16.0,98,0.06,,,0.18,weatherlink.com 1.10,2017-04-25 20:12:00,
2017-04-25 16:27:00,53.6,53.0,29.93,ENE,66,8.0,16.0,98,0.09,,,0.21,weatherlink.com 1.10,2017-04-25 20:27:00,
2017-04-25 16:42:00,53.6,53.0,29.93,ENE,61,3.0,11.0,98,0.10,,,0.23,weatherlink.com 1.10,2017-04-25 20:42:00,
2017-04-25 16:57:00,53.6,53.0,29.93,ESE,104,6.0,10.0,98,0.11,,,0.25,weatherlink.com 1.10,2017-04-25 20:57:00,
2017-04-25 17:12:00,53.6,53.0,29.92,NNE,13,2.0,18.0,98,0.10,,,0.28,weatherlink.com 1.10,2017-04-25 21:12:00,
2017-04-25 17:27:00,53.6,53.0,29.92,ENE,58,2.0,15.0,98,0.10,,,0.31,weatherlink.com 1.10,2017-04-25 21:27:00,
2017-04-25 17:42:00,53.4,53.0,29.91,NNE,18,6.0,13.0,98,0.14,,,0.37,weatherlink.com 1.10,2017-04-25 21:42:00,
2017-04-25 17:57:00,53.1,53.0,29.91,East,86,4.0,11.0,98,0.15,,,0.40,weatherlink.com 1.10,2017-04-25 21:57:00,
2017-04-25 18:12:00,52.8,52.0,29.91,ENE,61,7.0,14.0,98,0.17,,,0.46,weatherlink.com 1.10,2017-04-25 22:12:00,
2017-04-25 18:27:00,52.8,52.0,29.90,East,82,3.0,11.0,98,0.17,,,0.48,weatherlink.com 1.10,2017-04-25 22:27:00,
2017-04-25 18:42:00,52.9,52.0,29.89,NNE,18,3.0,13.0,98,0.16,,,0.53,weatherlink.com 1.10,2017-04-25 22:42:00,